Time;durP1;ratioP1;P1;durP2;ratioP2;P2;SDS_P1;SDS_P2;PMS_P1;PMS_P2;Temp;Humidity;BMP_temperature;BMP_pressure;BME280_temperature;BME280_humidity;BME280_pressure;Samples;Min_cycle;Max_cycle;Signal;HPM_P1;HPM_P2
2022/11/06 00:01:55;;;;;;;;;;;;;;;2.64;75.53;102155.27;1894751;75;20135;-56
2022/11/06 00:04:23;;;;;;;;;;;;;;;2.61;75.76;102151.73;1894841;75;20162;-55
2022/11/06 00:06:51;;;;;;;;;;;;;;;2.56;75.99;102145.14;1894837;76;20131;-53
2022/11/06 00:09:19;;;;;;;;;;;;;;;2.56;76.08;102150.34;1884994;76;20249;-53
2022/11/06 00:11:48;;;;;;;;;;;;;;;2.57;76.22;102150.81;1862701;77;20134;-52
2022/11/06 00:14:17;;;;;;;;;;;;;;;2.57;76.33;102149.95;1875328;76;20182;-50
2022/11/06 00:16:46;;;;;;;;;;;;;;;2.52;76.55;102143.34;1894809;76;20186;-51
2022/11/06 00:19:14;;;;;;;;;;;;;;;2.49;76.56;102143.29;1892993;76;20389;-49
2022/11/06 00:21:42;;;;;;;;;;;;;;;2.45;76.74;102142.39;1862666;77;20145;-54
2022/11/06 00:24:11;;;;;;;;;;;;;;;2.50;76.79;102146.35;1862728;77;20185;-55
2022/11/06 00:26:39;;;;;;;;;;;;;;;2.55;76.77;102146.02;1870936;76;20131;-48
2022/11/06 00:29:07;;;;;;;;;;;;;;;2.59;76.60;102145.20;1889946;76;20260;-62
2022/11/06 00:31:36;;;;;;;;;;;;;;;2.62;76.47;102142.67;1868915;76;20139;-56
2022/11/06 00:34:09;;;;;;;;;;;;;;;2.69;76.18;102140.62;1897979;74;20140;-55
2022/11/06 00:36:35;;;;;;;;;;;;;;;2.70;76.14;102147.55;1852469;74;20106;-58
2022/11/06 00:39:03;;;;;;;;;;;;;;;2.73;76.03;102141.95;1845178;78;20122;-58
2022/11/06 00:41:31;;;;;;;;;;;;;;;2.76;75.95;102142.87;1871570;76;20144;-59
2022/11/06 00:44:02;;;;;;;;;;;;;;;2.77;75.90;102138.56;1894928;74;20398;-59
2022/11/06 00:46:30;;;;;;;;;;;;;;;2.79;75.80;102140.33;1846889;76;20435;-60
2022/11/06 00:48:57;;;;;;;;;;;;;;;2.82;75.76;102142.09;1868960;76;20135;-57
2022/11/06 00:51:27;;;;;;;;;;;;;;;2.84;75.64;102142.98;1894439;76;20131;-58
2022/11/06 00:53:56;;;;;;;;;;;;;;;2.82;75.66;102139.48;1894711;76;20938;-59
2022/11/06 00:56:24;;;;;;;;;;;;;;;2.83;75.63;102135.61;1891210;76;20170;-59
2022/11/06 00:58:53;;;;;;;;;;;;;;;2.85;75.60;102139.55;1871716;75;20151;-59
2022/11/06 01:01:22;;;;;;;;;;;;;;;2.84;75.59;102142.98;1863968;77;20112;-59
2022/11/06 01:03:55;;;;;;;;;;;;;;;2.83;75.53;102143.42;1863489;77;20167;-59
2022/11/06 01:06:24;;;;;;;;;;;;;;;2.82;75.58;102141.69;1861254;76;20375;-61
2022/11/06 01:08:52;;;;;;;;;;;;;;;2.80;75.70;102142.06;1863944;77;20370;-60
2022/11/06 01:11:24;;;;;;;;;;;;;;;2.77;75.90;102146.38;1863925;77;20204;-61
2022/11/06 01:13:54;;;;;;;;;;;;;;;2.74;75.99;102145.88;1854389;77;20118;-59
2022/11/06 01:16:22;;;;;;;;;;;;;;;2.70;76.06;102148.85;1863450;77;20120;-57
2022/11/06 01:18:50;;;;;;;;;;;;;;;2.67;76.12;102140.12;1837661;77;20167;-57
2022/11/06 01:21:19;;;;;;;;;;;;;;;2.63;76.26;102148.73;1863227;77;20171;-58
2022/11/06 01:23:49;;;;;;;;;;;;;;;2.61;76.38;102147.41;1859664;76;20503;-57
2022/11/06 01:26:17;;;;;;;;;;;;;;;2.59;76.25;102147.81;1863856;77;20151;-57
2022/11/06 01:28:45;;;;;;;;;;;;;;;2.58;76.29;102140.84;1863930;77;20120;-54
2022/11/06 01:31:14;;;;;;;;;;;;;;;2.57;76.40;102144.31;1832243;77;20120;-61
2022/11/06 01:33:42;;;;;;;;;;;;;;;2.55;76.56;102151.65;1854454;76;20147;-54
2022/11/06 01:36:11;;;;;;;;;;;;;;;2.49;76.83;102153.28;1863952;77;20194;-58
2022/11/06 01:38:43;;;;;;;;;;;;;;;2.48;76.85;102147.63;1863951;76;20420;-53
2022/11/06 01:41:21;;;;;;;;;;;;;;;2.48;76.76;102147.63;1863971;77;20180;-54
2022/11/06 01:43:51;;;;;;;;;;;;;;;2.51;76.65;102155.92;1861182;77;20179;-56
2022/11/06 01:46:20;;;;;;;;;;;;;;;2.53;76.54;102158.52;1863923;77;20216;-61
2022/11/06 01:48:55;;;;;;;;;;;;;;;2.54;76.49;102161.58;1864007;77;20108;-57
2022/11/06 01:51:24;;;;;;;;;;;;;;;2.55;76.47;102165.52;1863807;77;20116;-59
2022/11/06 01:53:53;;;;;;;;;;;;;;;2.57;76.44;102166.84;1861280;77;20120;-53
2022/11/06 01:56:21;;;;;;;;;;;;;;;2.56;76.50;102166.38;1864049;77;20137;-60
2022/11/06 01:58:51;;;;;;;;;;;;;;;2.54;76.42;102152.05;1877792;75;20203;-59
2022/11/06 02:01:18;;;;;;;;;;;;;;;2.57;76.46;102157.75;1891382;76;20116;-60
2022/11/06 02:04:00;;;;;;;;;;;;;;;2.56;76.42;102158.58;1888690;76;20120;-58
2022/11/06 02:06:28;;;;;;;;;;;;;;;2.57;76.35;102165.11;1891081;76;20230;-58
2022/11/06 02:08:56;;;;;;;;;;;;;;;2.56;76.29;102162.05;1891321;76;20120;-57
2022/11/06 02:11:23;;;;;;;;;;;;;;;2.57;76.22;102167.71;1891333;76;20104;-58
2022/11/06 02:14:05;;;;;;;;;;;;;;;2.55;76.23;102169.41;1891381;76;20120;-58
2022/11/06 02:16:43;;;;;;;;;;;;;;;2.57;76.17;102178.11;1888679;76;20112;-58
2022/11/06 02:19:15;;;;;;;;;;;;;;;2.56;76.14;102178.95;1890977;76;20143;-58
2022/11/06 02:22:02;;;;;;;;;;;;;;;2.56;76.38;102177.65;1891309;76;20217;-58
2022/11/06 02:24:40;;;;;;;;;;;;;;;2.54;76.55;102179.34;1891397;76;20452;-59
2022/11/06 02:27:12;;;;;;;;;;;;;;;2.52;76.45;102178.45;1855567;76;20110;-58
2022/11/06 02:29:48;;;;;;;;;;;;;;;2.53;76.43;102173.72;1853228;77;20177;-58
2022/11/06 02:32:30;;;;;;;;;;;;;;;2.55;76.42;102179.81;1853298;76;20153;-58
2022/11/06 02:34:59;;;;;;;;;;;;;;;2.56;76.31;102182.84;1853126;77;20107;-58
2022/11/06 02:37:28;;;;;;;;;;;;;;;2.57;76.21;102178.11;1855615;76;20115;-59
2022/11/06 02:39:58;;;;;;;;;;;;;;;2.62;76.23;102186.88;1852468;77;20146;-59
2022/11/06 02:42:27;;;;;;;;;;;;;;;2.65;76.16;102184.30;1853060;77;20107;-56
2022/11/06 02:44:56;;;;;;;;;;;;;;;2.68;76.13;102179.16;1853178;76;20150;-55
2022/11/06 02:47:25;;;;;;;;;;;;;;;2.70;76.05;102181.80;1875979;76;20199;-54
2022/11/06 02:49:55;;;;;;;;;;;;;;;2.72;76.05;102187.03;1891371;76;20116;-54
2022/11/06 02:52:25;;;;;;;;;;;;;;;2.74;76.00;102189.23;1891336;76;20112;-53
2022/11/06 02:55:10;;;;;;;;;;;;;;;2.74;75.96;102199.20;1891462;76;20120;-54
2022/11/06 02:57:39;;;;;;;;;;;;;;;2.76;75.91;102191.42;1808585;79;20165;-54
2022/11/06 03:00:09;;;;;;;;;;;;;;;2.78;75.97;102192.33;1873608;76;20151;-53
2022/11/06 03:02:39;;;;;;;;;;;;;;;2.80;75.95;102194.09;1887185;76;20160;-56
2022/11/06 03:05:14;;;;;;;;;;;;;;;2.82;75.97;102196.72;1894161;76;20148;-56
2022/11/06 03:07:43;;;;;;;;;;;;;;;2.83;75.94;102193.28;1882913;76;20143;-55
2022/11/06 03:10:12;;;;;;;;;;;;;;;2.85;75.92;102192.87;1894429;76;20104;-54
2022/11/06 03:12:44;;;;;;;;;;;;;;;2.86;75.93;102189.44;1894794;74;20163;-57
2022/11/06 03:15:16;;;;;;;;;;;;;;;2.83;76.39;102186.34;1894545;75;20104;-55
2022/11/06 03:17:48;;;;;;;;;;;;;;;2.81;76.23;102185.87;1892038;76;20112;-55
2022/11/06 03:20:17;;;;;;;;;;;;;;;2.80;76.27;102185.42;1862494;76;20119;-56
2022/11/06 03:22:47;;;;;;;;;;;;;;;2.82;76.25;102184.61;1862763;77;20142;-56
2022/11/06 03:25:19;;;;;;;;;;;;;;;2.83;76.26;102188.08;1862549;77;20119;-57
2022/11/06 03:28:04;;;;;;;;;;;;;;;2.84;76.32;102189.41;1862830;77;20106;-58
2022/11/06 03:30:33;;;;;;;;;;;;;;;2.85;76.36;102191.58;1891470;76;20120;-57
2022/11/06 03:33:03;;;;;;;;;;;;;;;2.85;76.50;102190.27;1894876;76;20159;-56
2022/11/06 03:35:32;;;;;;;;;;;;;;;2.86;76.66;102198.11;1887760;76;20156;-56
2022/11/06 03:38:01;;;;;;;;;;;;;;;2.84;76.85;102198.52;1894616;76;20105;-56
2022/11/06 03:40:30;;;;;;;;;;;;;;;2.86;76.67;102198.55;1891842;76;20140;-59
2022/11/06 03:42:59;;;;;;;;;;;;;;;2.86;76.78;102200.71;1894739;76;20113;-60
2022/11/06 03:45:29;;;;;;;;;;;;;;;2.85;76.74;102204.58;1894876;76;20143;-60
2022/11/06 03:48:04;;;;;;;;;;;;;;;2.86;76.62;102198.55;1894837;76;20101;-55
2022/11/06 03:50:33;;;;;;;;;;;;;;;2.90;76.53;102200.34;1879545;74;20107;-60
2022/11/06 03:53:11;;;;;;;;;;;;;;;2.93;76.51;102205.57;1862806;77;20198;-60
2022/11/06 03:55:44;;;;;;;;;;;;;;;2.95;76.42;102210.40;1861939;77;20123;-59
2022/11/06 03:58:13;;;;;;;;;;;;;;;2.99;76.37;102217.80;1862702;76;20146;-59
2022/11/06 04:00:42;;;;;;;;;;;;;;;3.03;76.33;102211.82;1881179;75;20189;-59
2022/11/06 04:03:12;;;;;;;;;;;;;;;3.04;76.32;102209.25;1859521;77;20111;-59
2022/11/06 04:05:41;;;;;;;;;;;;;;;3.04;76.26;102214.45;1859382;77;20118;-60
2022/11/06 04:13:56;;;;;;;;;;;;;;;3.09;76.22;102209.30;1859594;77;20118;-59
2022/11/06 04:16:32;;;;;;;;;;;;;;;3.06;76.50;102211.44;1859406;77;20587;-60
2022/11/06 04:19:00;;;;;;;;;;;;;;;3.06;76.50;102214.05;1860402;76;20151;-57
2022/11/06 04:21:32;;;;;;;;;;;;;;;3.06;76.76;102215.34;1893139;76;20138;-57
2022/11/06 04:27:04;;;;;;;;;;;;;;;3.04;77.37;102219.66;1859491;77;20115;-58
2022/11/06 04:29:50;;;;;;;;;;;;;;;3.04;77.40;102222.26;1859444;76;20126;-58
2022/11/06 04:32:19;;;;;;;;;;;;;;;3.04;77.44;102219.66;1861962;76;20154;-58
2022/11/06 04:35:07;;;;;;;;;;;;;;;3.07;77.79;102226.19;1859161;77;20122;-58
2022/11/06 04:37:42;;;;;;;;;;;;;;;3.11;78.00;102231.02;1859480;77;20122;-58
2022/11/06 04:40:23;;;;;;;;;;;;;;;3.12;78.80;102227.58;1887769;76;20151;-57
2022/11/06 04:42:56;;;;;;;;;;;;;;;3.15;78.67;102231.94;1894888;76;20124;-58
2022/11/06 04:45:25;;;;;;;;;;;;;;;3.17;78.73;102240.64;1896084;75;20410;-59
2022/11/06 04:47:53;;;;;;;;;;;;;;;3.18;78.96;102244.58;1896437;76;20112;-57
2022/11/06 04:50:23;;;;;;;;;;;;;;;3.20;79.13;102248.52;1896384;76;20131;-57
2022/11/06 04:52:51;;;;;;;;;;;;;;;3.17;79.45;102247.16;1895150;76;20493;-58
2022/11/06 04:55:21;;;;;;;;;;;;;;;3.15;79.57;102252.33;1895487;76;20165;-57
2022/11/06 04:57:49;;;;;;;;;;;;;;;3.12;79.63;102257.91;1894940;76;20135;-57
2022/11/06 05:00:17;;;;;;;;;;;;;;;3.08;79.74;102256.98;1894904;74;20186;-57
2022/11/06 05:02:44;;;;;;;;;;;;;;;3.05;80.04;102257.82;1893647;76;20371;-57
2022/11/06 05:05:12;;;;;;;;;;;;;;;3.04;80.31;102261.30;1895185;75;20123;-59
2022/11/06 05:07:40;;;;;;;;;;;;;;;3.03;80.29;102268.63;1896947;76;20187;-59
2022/11/06 05:10:09;;;;;;;;;;;;;;;3.02;80.38;102266.87;1896901;75;20151;-58
2022/11/06 05:12:37;;;;;;;;;;;;;;;3.04;81.33;102276.91;1893408;76;20174;-61
2022/11/06 05:15:05;;;;;;;;;;;;;;;3.01;81.59;102274.24;1895088;76;20139;-58
2022/11/06 05:17:33;;;;;;;;;;;;;;;3.00;81.74;102282.02;1894461;76;20233;-60
2022/11/06 05:20:00;;;;;;;;;;;;;;;3.00;81.83;102276.81;1896874;76;20335;-61
2022/11/06 05:25:14;;;;;;;;;;;;;;;3.00;81.78;102282.89;1892288;76;20143;-60
2022/11/06 05:27:42;;;;;;;;;;;;;;;3.03;81.63;102293.36;1896629;76;20135;-59
2022/11/06 05:30:10;;;;;;;;;;;;;;;3.03;81.58;102292.06;1897076;76;20424;-60
2022/11/06 05:32:38;;;;;;;;;;;;;;;3.05;82.13;102290.79;1897032;76;20259;-58
2022/11/06 05:35:06;;;;;;;;;;;;;;;3.02;81.70;102294.63;1897094;76;20165;-58
2022/11/06 05:37:34;;;;;;;;;;;;;;;3.02;81.72;102298.09;1894860;76;20544;-60
2022/11/06 05:40:01;;;;;;;;;;;;;;;3.00;81.82;102304.14;1896824;76;20143;-60
2022/11/06 05:42:29;;;;;;;;;;;;;;;3.00;81.82;102305.44;1897019;76;20143;-61
2022/11/06 05:44:57;;;;;;;;;;;;;;;2.95;82.19;102310.58;1897038;76;20136;-61
2022/11/06 05:47:26;;;;;;;;;;;;;;;2.95;82.04;102306.67;1893221;76;20175;-58
2022/11/06 05:49:54;;;;;;;;;;;;;;;2.98;82.30;102311.05;1896990;76;20143;-58
2022/11/06 05:52:22;;;;;;;;;;;;;;;2.95;82.26;102309.68;1896929;76;20181;-57
2022/11/06 05:54:50;;;;;;;;;;;;;;;2.96;82.31;102317.52;1897019;76;20143;-57
2022/11/06 05:57:18;;;;;;;;;;;;;;;2.95;82.35;102317.48;1892277;76;20139;-55
2022/11/06 05:59:46;;;;;;;;;;;;;;;2.96;82.28;102327.06;1896848;76;20202;-56
2022/11/06 06:02:13;;;;;;;;;;;;;;;2.94;82.73;102333.53;1896933;76;20147;-56
2022/11/06 06:04:41;;;;;;;;;;;;;;;2.93;82.48;102326.56;1896863;76;20229;-57
2022/11/06 06:07:09;;;;;;;;;;;;;;;2.97;82.30;102331.39;1896951;76;20127;-54
2022/11/06 06:09:40;;;;;;;;;;;;;;;2.99;82.45;102339.70;1893527;76;20131;-56
2022/11/06 06:12:08;;;;;;;;;;;;;;;2.98;82.66;102339.23;1896972;76;20188;-59
2022/11/06 06:14:36;;;;;;;;;;;;;;;2.96;82.66;102338.34;1897051;76;20135;-59
2022/11/06 06:17:04;;;;;;;;;;;;;;;2.97;82.73;102340.10;1896838;76;20143;-58
2022/11/06 06:19:32;;;;;;;;;;;;;;;2.98;82.89;102344.44;1894524;76;20240;-56
2022/11/06 06:21:59;;;;;;;;;;;;;;;2.96;83.05;102346.14;1895581;76;20273;-57
2022/11/06 06:24:27;;;;;;;;;;;;;;;2.96;82.83;102346.14;1896892;76;20162;-57
2022/11/06 06:26:55;;;;;;;;;;;;;;;3.02;82.97;102342.34;1896822;76;20143;-59
2022/11/06 06:29:24;;;;;;;;;;;;;;;3.04;82.96;102348.47;1895470;76;20139;-59
2022/11/06 06:31:51;;;;;;;;;;;;;;;3.02;82.79;102348.84;1896960;76;20240;-58
2022/11/06 06:34:19;;;;;;;;;;;;;;;3.05;82.64;102351.51;1896903;76;20151;-58
2022/11/06 06:36:50;;;;;;;;;;;;;;;3.06;82.67;102349.38;1896874;76;20147;-58
2022/11/06 06:39:19;;;;;;;;;;;;;;;3.08;82.49;102346.77;1895291;76;20198;-58
2022/11/06 06:41:47;;;;;;;;;;;;;;;3.04;82.58;102347.58;1894785;76;20154;-59
2022/11/06 06:44:15;;;;;;;;;;;;;;;3.02;82.51;102348.84;1898129;76;20139;-58
2022/11/06 06:46:43;;;;;;;;;;;;;;;3.03;82.57;102348.01;1898082;76;20189;-58
2022/11/06 06:49:11;;;;;;;;;;;;;;;3.07;82.55;102352.41;1898035;76;20135;-56
2022/11/06 06:51:39;;;;;;;;;;;;;;;3.13;82.46;102345.13;1894580;76;20139;-56
2022/11/06 06:54:07;;;;;;;;;;;;;;;3.17;82.57;102355.17;1898084;76;20143;-56
2022/11/06 06:56:35;;;;;;;;;;;;;;;3.15;82.85;102352.97;1898098;76;20178;-55
2022/11/06 06:59:03;;;;;;;;;;;;;;;3.13;82.82;102354.68;1898166;76;20166;-54
2022/11/06 07:01:31;;;;;;;;;;;;;;;3.09;82.99;102349.84;1877624;75;20119;-55
2022/11/06 07:03:59;;;;;;;;;;;;;;;3.09;83.15;102355.91;1846459;77;20151;-55
2022/11/06 07:06:27;;;;;;;;;;;;;;;3.07;83.07;102357.62;1853172;77;20154;-58
2022/11/06 07:08:55;;;;;;;;;;;;;;;3.14;83.31;102358.61;1853213;77;20123;-57
2022/11/06 07:11:23;;;;;;;;;;;;;;;3.14;83.27;102352.55;1855664;76;20151;-60
2022/11/06 07:13:51;;;;;;;;;;;;;;;3.14;83.40;102352.55;1853197;77;20213;-59
2022/11/06 07:16:20;;;;;;;;;;;;;;;3.13;83.63;102350.77;1853190;77;20107;-56
2022/11/06 07:18:48;;;;;;;;;;;;;;;3.08;83.67;102345.07;1853436;76;20161;-55
2022/11/06 07:21:16;;;;;;;;;;;;;;;3.07;83.77;102347.20;1863222;76;20120;-53
2022/11/06 07:23:45;;;;;;;;;;;;;;;3.06;83.76;102353.68;1871661;76;20120;-53
2022/11/06 07:26:13;;;;;;;;;;;;;;;3.04;83.61;102348.87;1873510;76;20155;-65
2022/11/06 07:28:40;;;;;;;;;;;;;;;3.05;83.76;102352.81;1877835;75;20124;-60
2022/11/06 07:31:11;;;;;;;;;;;;;;;3.08;83.72;102346.38;1887202;76;20117;-55
2022/11/06 07:33:38;;;;;;;;;;;;;;;3.13;83.87;102347.73;1881153;76;20120;-62
2022/11/06 07:36:07;;;;;;;;;;;;;;;3.13;83.93;102346.44;1876276;76;20112;-60
2022/11/06 07:38:35;;;;;;;;;;;;;;;3.16;83.85;102344.33;1889242;75;20108;-60
2022/11/06 07:41:04;;;;;;;;;;;;;;;3.19;83.90;102344.36;1891393;76;20121;-57
2022/11/06 07:43:33;;;;;;;;;;;;;;;3.23;84.15;102343.59;1879377;76;20122;-57
2022/11/06 07:46:02;;;;;;;;;;;;;;;3.21;83.95;102350.47;1853361;77;20190;-58
2022/11/06 07:48:30;;;;;;;;;;;;;;;3.23;84.00;102348.36;1853234;77;20122;-58
2022/11/06 07:50:58;;;;;;;;;;;;;;;3.26;84.09;102349.73;1868198;76;20108;-59
2022/11/06 07:53:26;;;;;;;;;;;;;;;3.28;84.14;102351.93;1860023;76;20210;-58
2022/11/06 07:55:54;;;;;;;;;;;;;;;3.31;84.11;102345.02;1859484;77;20122;-60
2022/11/06 07:58:22;;;;;;;;;;;;;;;3.35;84.37;102346.38;1859559;77;20454;-59
2022/11/06 08:00:52;;;;;;;;;;;;;;;3.34;84.29;102343.34;1862397;76;20118;-58
2022/11/06 08:03:20;;;;;;;;;;;;;;;3.40;84.55;102348.64;1897331;76;20401;-59
2022/11/06 08:05:48;;;;;;;;;;;;;;;3.40;84.63;102353.84;1894747;76;20184;-60
2022/11/06 08:08:16;;;;;;;;;;;;;;;3.38;84.50;102345.14;1897636;76;20139;-60
2022/11/06 08:10:46;;;;;;;;;;;;;;;3.42;84.78;102354.74;1897615;76;20116;-60
2022/11/06 08:13:14;;;;;;;;;;;;;;;3.42;84.57;102354.74;1897734;76;20146;-56
2022/11/06 08:15:43;;;;;;;;;;;;;;;3.42;84.63;102348.23;1894854;74;20159;-57
2022/11/06 08:18:11;;;;;;;;;;;;;;;3.43;84.67;102342.19;1897556;76;20114;-57
2022/11/06 08:20:39;;;;;;;;;;;;;;;3.46;84.54;102351.33;1897585;76;20120;-56
2022/11/06 08:23:07;;;;;;;;;;;;;;;3.49;84.38;102346.62;1897591;76;20120;-59
2022/11/06 08:25:35;;;;;;;;;;;;;;;3.54;84.42;102345.37;1894879;76;20104;-58
2022/11/06 08:28:03;;;;;;;;;;;;;;;3.59;84.64;102343.72;1892172;76;20118;-59
2022/11/06 08:30:31;;;;;;;;;;;;;;;3.62;84.60;102341.17;1894873;76;20104;-58
2022/11/06 08:33:01;;;;;;;;;;;;;;;3.65;84.60;102344.70;1897640;76;20116;-56
2022/11/06 08:35:29;;;;;;;;;;;;;;;3.67;84.47;102340.80;1894916;76;20130;-56
2022/11/06 08:37:57;;;;;;;;;;;;;;;3.65;84.40;102337.30;1897596;76;20104;-57
2022/11/06 08:40:25;;;;;;;;;;;;;;;3.68;84.51;102336.05;1897589;76;20120;-57
2022/11/06 08:42:53;;;;;;;;;;;;;;;3.72;84.39;102339.14;1897605;76;20163;-56
2022/11/06 08:45:20;;;;;;;;;;;;;;;3.76;84.47;102334.45;1897520;76;20108;-57
2022/11/06 08:47:48;;;;;;;;;;;;;;;3.83;84.33;102334.96;1863446;76;20118;-57
2022/11/06 08:50:16;;;;;;;;;;;;;;;3.90;84.29;102328.55;1859412;76;20122;-57
2022/11/06 08:52:44;;;;;;;;;;;;;;;3.93;84.26;102327.27;1859611;77;20149;-58
2022/11/06 08:55:12;;;;;;;;;;;;;;;3.93;84.26;102327.27;1859398;77;20149;-58
2022/11/06 08:57:40;;;;;;;;;;;;;;;3.93;84.17;102328.58;1885110;76;20116;-59
2022/11/06 09:00:08;;;;;;;;;;;;;;;3.95;84.16;102332.11;1897814;74;20150;-57
2022/11/06 09:02:36;;;;;;;;;;;;;;;4.00;84.19;102327.81;1897479;76;20207;-56
2022/11/06 09:05:04;;;;;;;;;;;;;;;4.03;84.09;102326.56;1894823;76;20147;-56
2022/11/06 09:07:31;;;;;;;;;;;;;;;4.06;84.05;102328.78;1894871;76;20116;-57
2022/11/06 09:09:59;;;;;;;;;;;;;;;4.14;83.97;102330.18;1882807;76;20153;-57
2022/11/06 09:12:27;;;;;;;;;;;;;;;4.20;83.86;102326.34;1859496;77;20141;-58
2022/11/06 09:14:55;;;;;;;;;;;;;;;4.24;83.69;102329.45;1859379;77;20114;-59
2022/11/06 09:17:23;;;;;;;;;;;;;;;4.25;83.44;102330.32;1862021;76;20167;-59
2022/11/06 09:19:51;;;;;;;;;;;;;;;4.24;83.33;102332.06;1859396;77;20157;-59
2022/11/06 09:22:19;;;;;;;;;;;;;;;4.27;83.25;102335.56;1859393;77;20107;-56
2022/11/06 09:24:47;;;;;;;;;;;;;;;4.24;83.21;102335.08;1859344;76;20149;-62
2022/11/06 09:27:15;;;;;;;;;;;;;;;4.21;83.24;102337.66;1859441;77;20126;-59
2022/11/06 09:29:43;;;;;;;;;;;;;;;4.18;83.35;102333.27;1894822;76;20163;-59
2022/11/06 09:32:11;;;;;;;;;;;;;;;4.18;83.31;102333.70;1897620;74;20120;-59
2022/11/06 09:34:39;;;;;;;;;;;;;;;4.24;83.52;102329.86;1897556;76;20120;-57
2022/11/06 09:37:08;;;;;;;;;;;;;;;4.34;83.52;102329.13;1897508;76;20599;-56
2022/11/06 09:39:35;;;;;;;;;;;;;;;4.45;83.37;102326.66;1894747;76;20217;-55
2022/11/06 09:42:08;;;;;;;;;;;;;;;4.53;83.19;102321.52;1897673;76;20108;-56
2022/11/06 09:44:46;;;;;;;;;;;;;;;4.60;83.01;102321.61;1894587;76;20106;-59
2022/11/06 09:47:16;;;;;;;;;;;;;;;4.65;82.76;102321.67;1897643;76;20120;-58
2022/11/06 09:49:51;;;;;;;;;;;;;;;4.67;82.50;102316.44;1894130;76;20116;-55
2022/11/06 09:52:24;;;;;;;;;;;;;;;4.67;82.32;102319.95;1897665;76;20120;-56
2022/11/06 09:54:56;;;;;;;;;;;;;;;4.74;82.30;102318.26;1896720;76;20143;-57
2022/11/06 09:57:43;;;;;;;;;;;;;;;4.75;82.09;102318.72;1897627;76;20145;-57
2022/11/06 10:00:13;;;;;;;;;;;;;;;4.77;81.97;102315.25;1882312;76;20423;-58
2022/11/06 10:02:42;;;;;;;;;;;;;;;4.75;81.81;102310.45;1857447;76;20409;-58
2022/11/06 10:05:17;;;;;;;;;;;;;;;4.73;81.62;102303.48;1848434;78;20128;-58
2022/11/06 10:07:45;;;;;;;;;;;;;;;4.73;81.64;102304.78;1848418;78;20154;-60
2022/11/06 10:10:20;;;;;;;;;;;;;;;4.71;81.67;102299.98;1850504;76;20166;-60
2022/11/06 10:12:50;;;;;;;;;;;;;;;4.75;81.71;102297.84;1848456;78;20394;-57
2022/11/06 10:15:36;;;;;;;;;;;;;;;4.82;81.69;102291.39;1848177;78;20124;-57
2022/11/06 10:18:05;;;;;;;;;;;;;;;4.88;81.63;102285.79;1848471;77;20124;-61
2022/11/06 10:20:34;;;;;;;;;;;;;;;4.95;81.51;102284.55;1850255;76;20163;-62
2022/11/06 10:23:06;;;;;;;;;;;;;;;4.99;81.37;102281.09;1846566;76;20122;-62
2022/11/06 10:25:35;;;;;;;;;;;;;;;5.06;81.28;102277.25;1848310;76;20118;-62
2022/11/06 10:28:04;;;;;;;;;;;;;;;5.09;81.10;102269.42;1848166;78;20181;-61
2022/11/06 10:30:37;;;;;;;;;;;;;;;5.12;81.04;102270.77;1848255;78;20161;-62
2022/11/06 10:33:06;;;;;;;;;;;;;;;5.22;81.05;102261.72;1873394;76;20119;-62
2022/11/06 10:35:45;;;;;;;;;;;;;;;5.34;80.93;102261.36;1880037;75;20152;-62
2022/11/06 10:38:14;;;;;;;;;;;;;;;5.43;80.74;102258.81;1878916;75;20159;-62
2022/11/06 10:40:43;;;;;;;;;;;;;;;5.51;80.38;102248.41;1880132;76;20115;-62
2022/11/06 10:43:29;;;;;;;;;;;;;;;5.60;80.23;102253.69;1876526;76;20150;-63
2022/11/06 10:45:58;;;;;;;;;;;;;;;5.68;79.88;102250.70;1880048;76;20115;-64
2022/11/06 10:51:19;;;;;;;;;;;;;;;5.86;79.41;102241.19;1973003;73;20115;-62
2022/11/06 10:53:48;;;;;;;;;;;;;;;5.95;79.39;102235.59;1967964;73;20147;-55
2022/11/06 10:56:20;;;;;;;;;;;;;;;6.04;79.18;102232.14;1970968;73;20104;-56
2022/11/06 10:58:48;;;;;;;;;;;;;;;6.12;79.11;102225.22;1971015;73;20175;-56
2022/11/06 11:01:16;;;;;;;;;;;;;;;6.22;78.87;102222.63;1970971;73;20112;-56
2022/11/06 11:03:45;;;;;;;;;;;;;;;6.28;78.53;102211.73;1960877;73;20122;-56
2022/11/06 11:06:13;;;;;;;;;;;;;;;6.34;77.95;102217.00;1931238;74;20367;-58
2022/11/06 11:08:43;;;;;;;;;;;;;;;6.41;78.09;102220.48;1938265;74;20203;-58
2022/11/06 11:11:15;;;;;;;;;;;;;;;6.44;77.75;102221.80;1972243;73;20107;-58
2022/11/06 11:13:44;;;;;;;;;;;;;;;6.48;77.56;102213.08;1930228;74;20153;-63
2022/11/06 11:16:14;;;;;;;;;;;;;;;6.53;77.49;102208.73;1971566;73;20154;-63
2022/11/06 11:18:42;;;;;;;;;;;;;;;6.57;77.23;102213.09;1972289;73;20150;-55
2022/11/06 11:21:17;;;;;;;;;;;;;;;6.59;76.67;102209.17;1965348;73;20112;-60
2022/11/06 11:23:45;;;;;;;;;;;;;;;6.61;76.75;102209.18;1986904;72;20199;-60
2022/11/06 11:26:27;;;;;;;;;;;;;;;6.65;76.74;102201.31;1986289;72;20106;-60
2022/11/06 11:28:56;;;;;;;;;;;;;;;6.67;76.28;102200.02;1987556;72;20115;-60
2022/11/06 11:31:28;;;;;;;;;;;;;;;6.69;76.32;102196.52;1987683;72;20110;-59
2022/11/06 11:33:57;;;;;;;;;;;;;;;6.70;76.11;102194.34;1987531;72;20118;-60
2022/11/06 11:36:25;;;;;;;;;;;;;;;6.77;75.92;102197.84;1980846;72;20141;-57
2022/11/06 11:38:53;;;;;;;;;;;;;;;6.84;75.64;102198.70;1972373;72;20146;-60
2022/11/06 11:41:23;;;;;;;;;;;;;;;6.93;75.19;102196.98;1968255;73;20170;-60
2022/11/06 11:44:07;;;;;;;;;;;;;;;7.03;74.31;102193.04;1968222;73;20107;-51
2022/11/06 11:46:36;;;;;;;;;;;;;;;7.15;74.62;102192.55;1972704;73;20115;-50
2022/11/06 11:49:04;;;;;;;;;;;;;;;7.29;74.51;102195.16;1971295;73;20110;-60
2022/11/06 11:51:42;;;;;;;;;;;;;;;7.41;74.28;102192.08;1965847;73;20143;-60
2022/11/06 11:54:15;;;;;;;;;;;;;;;7.48;73.70;102196.43;1966242;73;20124;-60
2022/11/06 11:56:53;;;;;;;;;;;;;;;7.52;73.48;102188.98;1922975;75;20115;-60
2022/11/06 11:59:21;;;;;;;;;;;;;;;7.53;72.77;102197.30;1926559;74;20118;-57
2022/11/06 12:01:49;;;;;;;;;;;;;;;7.45;72.48;102193.80;1920832;75;20118;-57
2022/11/06 12:04:18;;;;;;;;;;;;;;;7.37;72.06;102199.07;1926388;74;20114;-66
2022/11/06 12:06:54;;;;;;;;;;;;;;;7.32;72.01;102195.17;1982098;72;20377;-57
2022/11/06 12:09:22;;;;;;;;;;;;;;;7.29;72.16;102195.61;1956652;72;20197;-58
2022/11/06 12:11:51;;;;;;;;;;;;;;;7.27;72.03;102196.92;1962431;73;20179;-58
2022/11/06 12:14:24;;;;;;;;;;;;;;;7.26;71.99;102192.54;1960534;72;20115;-57
2022/11/06 12:16:53;;;;;;;;;;;;;;;7.27;71.09;102189.06;1972181;72;20171;-58
2022/11/06 12:19:21;;;;;;;;;;;;;;;7.27;71.12;102194.30;1973764;72;20114;-55
2022/11/06 12:21:51;;;;;;;;;;;;;;;7.29;71.61;102192.55;1971201;72;20138;-56
2022/11/06 12:24:20;;;;;;;;;;;;;;;7.32;71.70;102188.62;1976551;72;20144;-55
2022/11/06 12:26:49;;;;;;;;;;;;;;;7.32;71.04;102195.17;1978795;72;20348;-55
2022/11/06 12:29:18;;;;;;;;;;;;;;;7.31;70.87;102188.62;1973877;72;20113;-59
2022/11/06 12:31:54;;;;;;;;;;;;;;;7.33;70.54;102189.48;1978616;72;20132;-58
2022/11/06 12:34:23;;;;;;;;;;;;;;;7.35;70.96;102195.14;1978093;72;20167;-57
2022/11/06 12:36:52;;;;;;;;;;;;;;;7.38;70.83;102200.83;1970408;72;20142;-59
2022/11/06 12:39:22;;;;;;;;;;;;;;;7.37;71.03;102195.59;1966144;72;20116;-57
2022/11/06 12:41:50;;;;;;;;;;;;;;;7.35;70.62;102201.69;1971112;72;20120;-56
2022/11/06 12:44:18;;;;;;;;;;;;;;;7.31;70.30;102196.03;1976725;72;20110;-56
2022/11/06 12:46:58;;;;;;;;;;;;;;;7.35;70.46;102208.24;1978617;72;20102;-57
2022/11/06 12:49:46;;;;;;;;;;;;;;;7.38;70.46;102210.41;1964350;72;20104;-58
2022/11/06 12:52:15;;;;;;;;;;;;;;;7.38;70.44;102205.17;1936815;73;20137;-54
2022/11/06 12:54:50;;;;;;;;;;;;;;;7.40;70.37;102203.45;1925905;73;20187;-58
2022/11/06 12:57:23;;;;;;;;;;;;;;;7.40;70.41;102200.83;1941964;73;20120;-52
2022/11/06 13:00:09;;;;;;;;;;;;;;;7.40;69.41;102205.63;1941194;74;20207;-50
2022/11/06 13:02:56;;;;;;;;;;;;;;;7.40;68.94;102204.31;1935434;74;20137;-47
2022/11/06 13:05:26;;;;;;;;;;;;;;;7.37;69.15;102206.07;1930411;74;20143;-51
2022/11/06 13:07:58;;;;;;;;;;;;;;;7.35;68.83;102208.69;1909337;74;20125;-48
2022/11/06 13:10:27;;;;;;;;;;;;;;;7.35;69.01;102208.69;1916491;74;20272;-57
2022/11/06 13:13:06;;;;;;;;;;;;;;;7.31;68.91;102207.82;1918226;74;20163;-55
2022/11/06 13:15:35;;;;;;;;;;;;;;;7.29;69.02;102203.47;1919253;74;20163;-53
2022/11/06 13:18:13;;;;;;;;;;;;;;;7.27;69.11;102207.40;1920354;74;20115;-56